Station info - map view · info · telemetry · weather · raw · status · beacons · messages · bulletins · browse · moving · my account
Callsign, ship name or locator: Clear       
It is possible to search using wildcards (*?) after a prefix. Example: OH*
APRS station OZ2U-9 - show graphs
Map loading...
Comment: Stephan paa farten i den sorte Golf +45 26724304
Mic-E message: En route
Location: 55°42.22' N 11°51.22' E - locator JO55WQ28KV - show map - static map
5.1 miles Northeast bearing 61° from Vipperød, Holbæk Kommune, Zealand, Denmark [?]
5.4 miles East bearing 100° from Holbæk (Holbaek), Holbæk Kommune, Zealand, Denmark
27.8 miles West bearing 274° from Copenhagen, Københavns Kommune, Capital Region, Denmark
45.2 miles West bearing 279° from Malmö (Malmoe), Malmö Kommun, Skåne, Sweden
Last position: 2017-02-23 07:14:55 EST (3d 14h8m ago)
2017-02-23 13:14:55 CET local time at Vipperød, Denmark [?]
Altitude: 52 ft
Course: 198°
Speed: 30 MPH
Device: Yaesu: FTM-350 (rig)
Last path: OZ2U-9>UU4R22 via WIDE1-1,WIDE2-1,qAR,OZ5DIB-1 (good)
Positions stored: 75116
Packet rate: 112 seconds between packets on average during 4826 seconds.
Other SSIDs: OZ2U OZ2U-7
Stations near current position of OZ2U-9 - show more
callsign distance last heard - EST      callsign distance last heard - EST
CW41674.0 miles 203°2017-02-26 21:22:27 OZ1BCG-97.6 miles 244°2017-02-26 21:02:24
OZ6REC-18.9 miles 252°2017-02-26 21:16:45 OV8LR-109.8 miles 37°2017-02-24 16:16:00
OV8LR-99.8 miles 37°2017-02-26 21:16:04 OV8LR-89.8 miles 37°2017-02-26 21:07:28
OV8LR-79.8 miles 37°2017-02-26 21:21:24 EW76349.9 miles 51°2017-02-26 21:12:10
OZ9KL10.2 miles 115°2017-02-19 09:43:22 OZ7QC-1310.4 miles 112°2017-02-26 21:14:16
OZ2LPA-310.8 miles 251°2017-02-26 09:20:47 OZ1IEP-510.8 miles 28°2017-02-26 16:10:52
OZ5DIB-110.8 miles 28°2017-02-26 16:09:36 OZ1IEP-410.8 miles 28°2017-02-26 16:10:40
OZ1IEP-910.8 miles 28°2017-02-26 11:49:07 OZ5DZL-911.6 miles 108°2017-02-02 04:26:17
OZ1IEP-811.7 miles 27°2017-02-26 09:52:01 RDAF-SAR112.1 miles 96°2017-02-07 12:37:18
OZ3TTT-712.1 miles 68°2017-02-15 00:43:10 RDAF-SAR812.2 miles 135°2017-01-31 05:40:15
Stations which heard OZ2U-9 directly on radio –
callsign pkts first heard - EST last heard longest (tx => rx) longest at - EST
OZ4DIE-2 67 2017-02-11 09:50:14 2017-02-23 07:12:10 JO55XG > JO65FR 36.9 miles 28° 2017-02-11 09:50:14
DB0FD 1 2017-02-11 03:26:37 2017-02-11 03:26:37 JO52KK > JO42SF 57.7 miles 258° 2017-02-11 03:26:37
OZ5DIB-1 84 2017-02-11 10:10:14 2017-02-23 07:15:01 JO55UK > JO55XU 30.2 miles 23° 2017-02-23 06:33:30
DB0OI 1 2017-02-11 03:31:28 2017-02-11 03:31:28 JO52JK > JO52GG 17.2 miles 229° 2017-02-11 03:31:28
DB0HRO 1 2017-02-11 06:32:01 2017-02-11 06:32:01 JO54NJ > JO64AD 41.8 miles 116° 2017-02-11 06:32:01
OZ4DIC-2 7 2017-02-21 17:49:48 2017-02-21 18:10:01 JO55JH > JO55FJ 13.4 miles 292° 2017-02-21 18:10:01
OZ4DIA-2 10 2017-02-11 09:03:47 2017-02-21 18:17:12 JO55LH > JO64AV 53.2 miles 123° 2017-02-21 18:17:12
OZ4DIF-2 22 2017-02-11 10:20:14 2017-02-23 07:02:43 JO65BT > JO55QJ 40.5 miles 224° 2017-02-20 16:16:02
OZ4DIS-2 2 2017-02-21 04:02:34 2017-02-23 07:08:05 JO55VQ > JO55NQ 28.6 miles 272° 2017-02-23 07:08:05
OZ6FRS-3 53 2017-02-11 10:13:24 2017-02-23 07:12:14 JO55UO > JO65BT 20.4 miles 44° 2017-02-21 19:01:26
DO0SOC 25 2017-02-11 06:08:21 2017-02-11 07:16:11 JO54OM > JO54KI 17.9 miles 231° 2017-02-11 07:16:11
OZ6DIA-2 5 2017-02-11 08:44:40 2017-02-11 09:03:14 JO54RS > JO54QQ 5.7 miles 207° 2017-02-11 09:03:14
DL1FAC-10 5 2017-02-11 05:58:09 2017-02-11 06:07:48 JO53IW > JO54HD 13.3 miles 338° 2017-02-11 05:58:09
OZ8SMA-2 3 2017-02-11 09:05:47 2017-02-11 09:44:12 JO54SS > JO55WA 22.0 miles 43° 2017-02-11 09:05:47
OZ1EIZ-3 3 2017-02-11 10:06:28 2017-02-11 10:12:18 JO65CN > JO65CL 3.7 miles 178° 2017-02-11 10:12:18
OZ9AAJ-3 2 2017-02-11 09:38:34 2017-02-11 09:46:10 JO55XE > JO65CC 10.4 miles 133° 2017-02-11 09:46:10
OZ1BZJ-1 34 2017-02-11 10:12:16 2017-02-23 07:12:09 JO55TU > JO65CQ 27.1 miles 115° 2017-02-21 03:51:52
OZ1ARQ-1 8 2017-02-11 09:09:05 2017-02-11 09:29:22 JO64AX > JO54WS 15.9 miles 204° 2017-02-11 09:29:22
OV7B-1 15 2017-02-21 17:02:25 2017-02-21 17:42:36 JO45WX > JO45VL 33.1 miles 187° 2017-02-21 17:02:25
DB0FS-10 11 2017-02-11 05:07:46 2017-02-11 05:40:08 JO53CI > JO43XO 21.3 miles 328° 2017-02-11 05:07:46
OZ5W-1 77 2017-02-11 09:50:13 2017-02-23 07:14:56 JO55MI > JO55UL 27.5 miles 69° 2017-02-21 18:21:13
OZ1AHV-1 28 2017-02-11 09:52:55 2017-02-23 07:02:41 JO55XS > JO55XL 19.4 miles 178° 2017-02-20 13:55:49
DB0HHW 1 2017-02-11 05:36:06 2017-02-11 05:36:06 JO53DP > JO43TQ 25.5 miles 276° 2017-02-11 05:36:06
OZ5DSL-1 75 2017-02-11 08:38:00 2017-02-23 07:01:09 JO54QP > JO55QJ 49.9 miles 359° 2017-02-11 08:38:00
OZ6REC-1 112 2017-02-11 10:15:16 2017-02-23 07:14:24 JO55PX > JO55TP 25.3 miles 149° 2017-02-21 04:13:22
DL0PTB-10 17 2017-02-04 07:02:42 2017-02-11 04:14:19 JO52IT > JO52FH 36.1 miles 197° 2017-02-11 04:14:19
DB0DAN 19 2017-02-11 03:54:23 2017-02-11 05:03:44 JO52JO > JO53KB 30.9 miles 6° 2017-02-11 03:54:23
DD3TF-5 5 2017-02-11 05:13:25 2017-02-11 05:38:07 JO53AJ > JO53AP 18.2 miles 360° 2017-02-11 05:13:25
DB0CEL-10 2 2017-02-11 04:03:08 2017-02-11 04:07:55 JO52JQ > JO52BP 30.5 miles 262° 2017-02-11 04:03:08
SK7DS-2 11 2017-02-17 10:29:43 2017-02-20 16:12:08 JO55XR > JO65JW 36.8 miles 66° 2017-02-20 13:51:32
OZ1KXH-10 19 2017-02-21 05:58:26 2017-02-21 16:56:48 JO45WX > JO56DG 24.6 miles 39° 2017-02-21 16:56:48
DA9X-10 11 2017-02-11 03:44:41 2017-02-11 04:11:32 JO52JM > JO52HR 16.5 miles 336° 2017-02-11 03:44:41
OZ6HR-2 9 2017-02-21 16:51:08 2017-02-21 17:12:15 JO45UU > JO45WW 8.0 miles 36° 2017-02-21 17:12:15
DO5OK-10 3 2017-02-11 03:26:34 2017-02-11 03:29:26 JO52KK > JO52IK 6.7 miles 265° 2017-02-11 03:26:34
DB0RG-10 9 2017-02-04 06:58:23 2017-02-04 10:19:20 JO52MK > JO52JK 9.9 miles 257° 2017-02-04 10:08:49

Only position packets which were originated by the station are shown here. The range statistics show some extra long hops, because some digipeaters do not correctly add themselves to the digipeater path. Please check the raw packets.
About this site
This page shows real-time information collected from the Automatic Position Reporting System Internet network (APRS-IS). APRS is used by amateur (ham) radio operators to transmit real-time position information, weather data, telemetry and messages over the radio. A vehicle equipped with a GPS receiver, a VHF transmitter or HF transceiver and a small computer device called a tracker transmits it's location, speed and course in a small data packet, which is then received by a nearby iGate receiving site which forwards the packet on the Internet. Systems connected to the Internet can send information on the APRS-IS without a radio transmitter, or collect and display information transmitted anywhere in the world.
FAQ · Blog · Discussion group · Linking to aprs.fi · AIS sites · Service status · Database statistics · Advertising on aprs.fi · Technical details · API · Change log · Planned changes · Credits and thanks · Terms Of Service · iPhone/iPad APRS